sensor_id;sensor_type;location;lat;lon;timestamp;temperature;humidity
26595;DHT22;14238;49.496;8.154;2023-04-03T00:01:32;3.20;99.90
26595;DHT22;14238;49.496;8.154;2023-04-03T00:03:58;3.00;99.90
26595;DHT22;14238;49.496;8.154;2023-04-03T00:06:24;2.80;99.90
26595;DHT22;14238;49.496;8.154;2023-04-03T00:08:50;2.70;99.90
26595;DHT22;14238;49.496;8.154;2023-04-03T00:11:16;2.50;99.90
26595;DHT22;14238;49.496;8.154;2023-04-03T00:13:42;2.50;99.90
26595;DHT22;14238;49.496;8.154;2023-04-03T00:16:09;2.40;99.90
26595;DHT22;14238;49.496;8.154;2023-04-03T00:18:36;2.40;99.90
26595;DHT22;14238;49.496;8.154;2023-04-03T00:21:02;2.20;99.90
26595;DHT22;14238;49.496;8.154;2023-04-03T00:23:27;2.20;99.90
26595;DHT22;14238;49.496;8.154;2023-04-03T00:25:53;2.10;99.90
26595;DHT22;14238;49.496;8.154;2023-04-03T00:28:19;2.00;99.90
26595;DHT22;14238;49.496;8.154;2023-04-03T00:30:45;2.00;99.90
26595;DHT22;14238;49.496;8.154;2023-04-03T00:33:14;1.70;99.90
26595;DHT22;14238;49.496;8.154;2023-04-03T00:35:40;1.80;99.90
26595;DHT22;14238;49.496;8.154;2023-04-03T00:38:06;1.70;99.90
26595;DHT22;14238;49.496;8.154;2023-04-03T00:40:41;1.50;99.90
26595;DHT22;14238;49.496;8.154;2023-04-03T00:43:22;1.50;99.90
26595;DHT22;14238;49.496;8.154;2023-04-03T00:45:52;1.50;99.90
26595;DHT22;14238;49.496;8.154;2023-04-03T00:48:39;1.40;99.90
26595;DHT22;14238;49.496;8.154;2023-04-03T00:51:08;1.40;99.90
26595;DHT22;14238;49.496;8.154;2023-04-03T00:53:43;1.50;99.90
26595;DHT22;14238;49.496;8.154;2023-04-03T00:56:13;1.40;99.90
26595;DHT22;14238;49.496;8.154;2023-04-03T00:59:06;1.40;99.90
26595;DHT22;14238;49.496;8.154;2023-04-03T01:01:34;1.30;99.90
26595;DHT22;14238;49.496;8.154;2023-04-03T01:04:01;1.40;99.90
26595;DHT22;14238;49.496;8.154;2023-04-03T01:06:30;1.40;99.90
26595;DHT22;14238;49.496;8.154;2023-04-03T01:08:59;1.40;99.90
26595;DHT22;14238;49.496;8.154;2023-04-03T01:11:24;1.40;99.90
26595;DHT22;14238;49.496;8.154;2023-04-03T01:13:50;1.50;99.90
26595;DHT22;14238;49.496;8.154;2023-04-03T01:16:16;1.50;99.90
26595;DHT22;14238;49.496;8.154;2023-04-03T01:18:42;1.60;99.90
26595;DHT22;14238;49.496;8.154;2023-04-03T01:24:20;1.40;99.90
26595;DHT22;14238;49.496;8.154;2023-04-03T01:26:48;1.30;99.90
26595;DHT22;14238;49.496;8.154;2023-04-03T01:29:14;1.30;99.90
26595;DHT22;14238;49.496;8.154;2023-04-03T01:34:17;1.20;99.90
26595;DHT22;14238;49.496;8.154;2023-04-03T01:36:43;1.20;99.90
26595;DHT22;14238;49.496;8.154;2023-04-03T01:39:08;1.30;99.90
26595;DHT22;14238;49.496;8.154;2023-04-03T01:41:34;1.40;99.90
26595;DHT22;14238;49.496;8.154;2023-04-03T01:44:00;1.50;99.90
26595;DHT22;14238;49.496;8.154;2023-04-03T01:46:26;1.50;99.90
26595;DHT22;14238;49.496;8.154;2023-04-03T01:48:51;1.50;99.90
26595;DHT22;14238;49.496;8.154;2023-04-03T01:51:17;1.60;99.90
26595;DHT22;14238;49.496;8.154;2023-04-03T01:53:42;1.60;99.90
26595;DHT22;14238;49.496;8.154;2023-04-03T01:56:08;1.60;99.90
26595;DHT22;14238;49.496;8.154;2023-04-03T01:58:33;1.60;99.90
26595;DHT22;14238;49.496;8.154;2023-04-03T02:00:59;1.60;99.90
26595;DHT22;14238;49.496;8.154;2023-04-03T02:03:25;1.60;99.90
26595;DHT22;14238;49.496;8.154;2023-04-03T02:05:50;1.60;99.90
26595;DHT22;14238;49.496;8.154;2023-04-03T02:08:16;1.60;99.90
26595;DHT22;14238;49.496;8.154;2023-04-03T02:10:44;1.60;99.90
26595;DHT22;14238;49.496;8.154;2023-04-03T02:13:11;1.60;99.90
26595;DHT22;14238;49.496;8.154;2023-04-03T02:15:40;1.60;99.90
26595;DHT22;14238;49.496;8.154;2023-04-03T02:18:06;1.50;99.90
26595;DHT22;14238;49.496;8.154;2023-04-03T02:20:32;1.50;99.90
26595;DHT22;14238;49.496;8.154;2023-04-03T02:22:57;1.50;99.90
26595;DHT22;14238;49.496;8.154;2023-04-03T02:25:23;1.50;99.90
26595;DHT22;14238;49.496;8.154;2023-04-03T02:27:49;1.50;99.90
26595;DHT22;14238;49.496;8.154;2023-04-03T02:30:14;1.50;99.90
26595;DHT22;14238;49.496;8.154;2023-04-03T02:32:41;1.50;99.90
26595;DHT22;14238;49.496;8.154;2023-04-03T02:35:08;1.50;99.90
26595;DHT22;14238;49.496;8.154;2023-04-03T02:37:34;1.50;99.90
26595;DHT22;14238;49.496;8.154;2023-04-03T02:40:00;1.50;99.90
26595;DHT22;14238;49.496;8.154;2023-04-03T02:42:25;1.50;99.90
26595;DHT22;14238;49.496;8.154;2023-04-03T02:44:51;1.50;99.90
26595;DHT22;14238;49.496;8.154;2023-04-03T02:47:16;1.50;99.90
26595;DHT22;14238;49.496;8.154;2023-04-03T02:49:42;1.50;99.90
26595;DHT22;14238;49.496;8.154;2023-04-03T02:52:10;1.50;99.90
26595;DHT22;14238;49.496;8.154;2023-04-03T02:57:01;1.40;99.90
26595;DHT22;14238;49.496;8.154;2023-04-03T02:59:27;1.40;99.90
26595;DHT22;14238;49.496;8.154;2023-04-03T03:01:53;1.20;99.90
26595;DHT22;14238;49.496;8.154;2023-04-03T03:04:18;1.20;99.90
26595;DHT22;14238;49.496;8.154;2023-04-03T03:06:44;1.20;99.90
26595;DHT22;14238;49.496;8.154;2023-04-03T03:09:09;1.20;99.90
26595;DHT22;14238;49.496;8.154;2023-04-03T03:11:35;1.10;99.90
26595;DHT22;14238;49.496;8.154;2023-04-03T03:14:01;1.20;99.90
26595;DHT22;14238;49.496;8.154;2023-04-03T03:16:26;1.20;99.90
26595;DHT22;14238;49.496;8.154;2023-04-03T03:18:52;1.10;99.90
26595;DHT22;14238;49.496;8.154;2023-04-03T03:21:17;1.10;99.90
26595;DHT22;14238;49.496;8.154;2023-04-03T03:23:43;1.00;99.90
26595;DHT22;14238;49.496;8.154;2023-04-03T03:26:10;1.00;99.90
26595;DHT22;14238;49.496;8.154;2023-04-03T03:28:37;0.90;99.90
26595;DHT22;14238;49.496;8.154;2023-04-03T03:31:03;0.90;99.90
26595;DHT22;14238;49.496;8.154;2023-04-03T03:33:29;0.80;99.90
26595;DHT22;14238;49.496;8.154;2023-04-03T03:35:55;0.80;99.90
26595;DHT22;14238;49.496;8.154;2023-04-03T03:38:21;0.80;99.90
26595;DHT22;14238;49.496;8.154;2023-04-03T03:40:48;0.80;99.90
26595;DHT22;14238;49.496;8.154;2023-04-03T03:43:14;0.80;99.90
26595;DHT22;14238;49.496;8.154;2023-04-03T03:45:40;0.80;99.90
26595;DHT22;14238;49.496;8.154;2023-04-03T03:48:05;0.80;99.90
26595;DHT22;14238;49.496;8.154;2023-04-03T03:50:31;0.90;99.90
26595;DHT22;14238;49.496;8.154;2023-04-03T03:52:56;0.90;99.90
26595;DHT22;14238;49.496;8.154;2023-04-03T03:55:22;0.80;99.90
26595;DHT22;14238;49.496;8.154;2023-04-03T03:57:48;0.80;99.90
26595;DHT22;14238;49.496;8.154;2023-04-03T04:00:14;0.80;99.90
26595;DHT22;14238;49.496;8.154;2023-04-03T04:02:40;0.80;99.90
26595;DHT22;14238;49.496;8.154;2023-04-03T04:05:06;0.90;99.90
26595;DHT22;14238;49.496;8.154;2023-04-03T04:07:32;0.90;99.90
26595;DHT22;14238;49.496;8.154;2023-04-03T04:09:57;1.00;99.90
26595;DHT22;14238;49.496;8.154;2023-04-03T04:12:23;0.90;99.90
26595;DHT22;14238;49.496;8.154;2023-04-03T04:14:48;0.90;99.90
26595;DHT22;14238;49.496;8.154;2023-04-03T04:17:14;0.90;99.90
26595;DHT22;14238;49.496;8.154;2023-04-03T04:19:40;0.90;99.90
26595;DHT22;14238;49.496;8.154;2023-04-03T04:22:05;0.80;99.90
26595;DHT22;14238;49.496;8.154;2023-04-03T04:24:31;0.80;99.90
26595;DHT22;14238;49.496;8.154;2023-04-03T04:26:56;0.80;99.90
26595;DHT22;14238;49.496;8.154;2023-04-03T04:29:22;0.80;99.90
26595;DHT22;14238;49.496;8.154;2023-04-03T04:31:48;0.70;99.90
26595;DHT22;14238;49.496;8.154;2023-04-03T04:34:13;0.70;99.90
26595;DHT22;14238;49.496;8.154;2023-04-03T04:36:39;0.70;99.90
26595;DHT22;14238;49.496;8.154;2023-04-03T04:39:05;0.70;99.90
26595;DHT22;14238;49.496;8.154;2023-04-03T04:41:31;0.70;99.90
26595;DHT22;14238;49.496;8.154;2023-04-03T04:43:57;0.70;99.90
26595;DHT22;14238;49.496;8.154;2023-04-03T04:46:23;0.70;99.90
26595;DHT22;14238;49.496;8.154;2023-04-03T04:48:48;0.70;99.90
26595;DHT22;14238;49.496;8.154;2023-04-03T04:51:14;0.60;99.90
26595;DHT22;14238;49.496;8.154;2023-04-03T04:53:40;0.70;99.90
26595;DHT22;14238;49.496;8.154;2023-04-03T04:56:06;0.60;99.90
26595;DHT22;14238;49.496;8.154;2023-04-03T04:58:32;0.60;99.90
26595;DHT22;14238;49.496;8.154;2023-04-03T05:01:02;0.60;99.90
26595;DHT22;14238;49.496;8.154;2023-04-03T05:03:28;0.60;99.90
26595;DHT22;14238;49.496;8.154;2023-04-03T05:05:53;0.60;99.90
26595;DHT22;14238;49.496;8.154;2023-04-03T05:08:19;0.50;99.90
26595;DHT22;14238;49.496;8.154;2023-04-03T05:10:46;0.60;99.90
26595;DHT22;14238;49.496;8.154;2023-04-03T05:13:11;0.70;99.90
26595;DHT22;14238;49.496;8.154;2023-04-03T05:15:37;0.80;99.90
26595;DHT22;14238;49.496;8.154;2023-04-03T05:18:02;0.70;99.90
26595;DHT22;14238;49.496;8.154;2023-04-03T05:20:28;0.80;99.90
26595;DHT22;14238;49.496;8.154;2023-04-03T05:22:53;0.80;99.90
26595;DHT22;14238;49.496;8.154;2023-04-03T05:25:19;0.80;99.90
26595;DHT22;14238;49.496;8.154;2023-04-03T05:27:44;0.90;99.90
26595;DHT22;14238;49.496;8.154;2023-04-03T05:30:10;0.90;99.90
26595;DHT22;14238;49.496;8.154;2023-04-03T05:32:36;1.00;99.90
26595;DHT22;14238;49.496;8.154;2023-04-03T05:35:02;1.10;99.90
26595;DHT22;14238;49.496;8.154;2023-04-03T05:37:27;1.20;99.90
26595;DHT22;14238;49.496;8.154;2023-04-03T05:39:53;1.30;99.90
26595;DHT22;14238;49.496;8.154;2023-04-03T05:42:18;1.40;99.90
26595;DHT22;14238;49.496;8.154;2023-04-03T05:44:44;1.40;99.90
26595;DHT22;14238;49.496;8.154;2023-04-03T05:47:12;1.50;99.90
26595;DHT22;14238;49.496;8.154;2023-04-03T05:49:37;1.50;99.90
26595;DHT22;14238;49.496;8.154;2023-04-03T05:52:09;1.60;99.90
26595;DHT22;14238;49.496;8.154;2023-04-03T05:54:37;1.70;99.90
26595;DHT22;14238;49.496;8.154;2023-04-03T05:57:03;1.70;99.90
26595;DHT22;14238;49.496;8.154;2023-04-03T05:59:28;1.80;99.90
26595;DHT22;14238;49.496;8.154;2023-04-03T06:01:54;1.80;99.90
26595;DHT22;14238;49.496;8.154;2023-04-03T06:04:20;1.90;99.90
26595;DHT22;14238;49.496;8.154;2023-04-03T06:06:49;2.00;99.90
26595;DHT22;14238;49.496;8.154;2023-04-03T06:09:18;2.10;99.90
26595;DHT22;14238;49.496;8.154;2023-04-03T06:11:44;2.20;99.90
26595;DHT22;14238;49.496;8.154;2023-04-03T06:14:10;2.30;99.90
26595;DHT22;14238;49.496;8.154;2023-04-03T06:16:37;2.30;99.90
26595;DHT22;14238;49.496;8.154;2023-04-03T06:19:03;2.30;99.90
26595;DHT22;14238;49.496;8.154;2023-04-03T06:21:29;2.40;99.90
26595;DHT22;14238;49.496;8.154;2023-04-03T06:23:55;2.40;99.90
26595;DHT22;14238;49.496;8.154;2023-04-03T06:26:21;2.50;99.90
26595;DHT22;14238;49.496;8.154;2023-04-03T06:28:47;2.50;99.90
26595;DHT22;14238;49.496;8.154;2023-04-03T06:31:13;2.50;99.90
26595;DHT22;14238;49.496;8.154;2023-04-03T06:33:38;2.50;99.90
26595;DHT22;14238;49.496;8.154;2023-04-03T06:36:05;2.50;99.90
26595;DHT22;14238;49.496;8.154;2023-04-03T06:38:31;2.50;99.90
26595;DHT22;14238;49.496;8.154;2023-04-03T06:40:57;2.50;99.90
26595;DHT22;14238;49.496;8.154;2023-04-03T06:43:23;2.60;99.90
26595;DHT22;14238;49.496;8.154;2023-04-03T06:45:49;2.70;99.90
26595;DHT22;14238;49.496;8.154;2023-04-03T06:48:15;2.70;99.90
26595;DHT22;14238;49.496;8.154;2023-04-03T06:50:42;2.70;99.90
26595;DHT22;14238;49.496;8.154;2023-04-03T06:53:08;2.80;99.90
26595;DHT22;14238;49.496;8.154;2023-04-03T06:55:33;2.80;99.90
26595;DHT22;14238;49.496;8.154;2023-04-03T06:57:59;2.80;99.90
26595;DHT22;14238;49.496;8.154;2023-04-03T07:00:26;2.90;99.90
26595;DHT22;14238;49.496;8.154;2023-04-03T07:02:51;2.90;99.90
26595;DHT22;14238;49.496;8.154;2023-04-03T07:05:17;2.90;99.90
26595;DHT22;14238;49.496;8.154;2023-04-03T07:07:43;3.00;99.90
26595;DHT22;14238;49.496;8.154;2023-04-03T07:10:09;3.10;99.90
26595;DHT22;14238;49.496;8.154;2023-04-03T07:12:35;3.10;99.90
26595;DHT22;14238;49.496;8.154;2023-04-03T07:15:01;3.20;99.90
26595;DHT22;14238;49.496;8.154;2023-04-03T07:17:28;3.30;99.90
26595;DHT22;14238;49.496;8.154;2023-04-03T07:19:53;3.40;99.90
26595;DHT22;14238;49.496;8.154;2023-04-03T07:22:19;3.40;99.90
26595;DHT22;14238;49.496;8.154;2023-04-03T07:24:44;3.50;99.90
26595;DHT22;14238;49.496;8.154;2023-04-03T07:27:10;3.60;99.90
26595;DHT22;14238;49.496;8.154;2023-04-03T07:29:38;3.70;99.90
26595;DHT22;14238;49.496;8.154;2023-04-03T07:32:04;3.70;99.90
26595;DHT22;14238;49.496;8.154;2023-04-03T07:34:31;3.80;99.90
26595;DHT22;14238;49.496;8.154;2023-04-03T07:36:57;3.80;99.90
26595;DHT22;14238;49.496;8.154;2023-04-03T07:39:23;3.90;99.90
26595;DHT22;14238;49.496;8.154;2023-04-03T07:41:48;4.00;99.90
26595;DHT22;14238;49.496;8.154;2023-04-03T07:44:15;4.00;99.90
26595;DHT22;14238;49.496;8.154;2023-04-03T07:46:40;4.00;99.90
26595;DHT22;14238;49.496;8.154;2023-04-03T07:49:07;4.10;99.90
26595;DHT22;14238;49.496;8.154;2023-04-03T07:51:33;4.10;99.90
26595;DHT22;14238;49.496;8.154;2023-04-03T07:53:59;4.20;99.90
26595;DHT22;14238;49.496;8.154;2023-04-03T07:56:24;4.30;99.90
26595;DHT22;14238;49.496;8.154;2023-04-03T07:58:50;4.20;99.90
26595;DHT22;14238;49.496;8.154;2023-04-03T08:01:16;4.30;99.90
26595;DHT22;14238;49.496;8.154;2023-04-03T08:03:42;4.50;99.90
26595;DHT22;14238;49.496;8.154;2023-04-03T08:06:09;4.40;99.90
26595;DHT22;14238;49.496;8.154;2023-04-03T08:08:34;4.40;99.90
26595;DHT22;14238;49.496;8.154;2023-04-03T08:11:01;4.50;99.90
26595;DHT22;14238;49.496;8.154;2023-04-03T08:13:28;4.70;99.90
26595;DHT22;14238;49.496;8.154;2023-04-03T08:15:54;4.80;99.90
26595;DHT22;14238;49.496;8.154;2023-04-03T08:18:21;4.80;99.90
26595;DHT22;14238;49.496;8.154;2023-04-03T08:20:50;4.90;99.90
26595;DHT22;14238;49.496;8.154;2023-04-03T08:23:15;4.90;99.90
26595;DHT22;14238;49.496;8.154;2023-04-03T08:25:42;4.90;99.90
26595;DHT22;14238;49.496;8.154;2023-04-03T08:28:08;5.00;99.90
26595;DHT22;14238;49.496;8.154;2023-04-03T08:30:34;4.90;99.90
26595;DHT22;14238;49.496;8.154;2023-04-03T08:33:01;5.00;99.90
26595;DHT22;14238;49.496;8.154;2023-04-03T08:35:27;5.10;99.90
26595;DHT22;14238;49.496;8.154;2023-04-03T08:37:53;5.30;99.90
26595;DHT22;14238;49.496;8.154;2023-04-03T08:40:18;5.50;99.90
26595;DHT22;14238;49.496;8.154;2023-04-03T08:50:43;7.30;99.90
26595;DHT22;14238;49.496;8.154;2023-04-03T08:53:22;7.60;99.90
26595;DHT22;14238;49.496;8.154;2023-04-03T08:55:50;8.10;99.90
26595;DHT22;14238;49.496;8.154;2023-04-03T08:58:20;8.50;99.90
26595;DHT22;14238;49.496;8.154;2023-04-03T09:00:51;8.30;99.90
26595;DHT22;14238;49.496;8.154;2023-04-03T09:03:19;8.20;99.90
26595;DHT22;14238;49.496;8.154;2023-04-03T09:05:50;8.90;99.90
26595;DHT22;14238;49.496;8.154;2023-04-03T09:08:30;8.90;99.90
26595;DHT22;14238;49.496;8.154;2023-04-03T09:14:11;8.80;99.90
26595;DHT22;14238;49.496;8.154;2023-04-03T09:16:58;8.50;99.90
26595;DHT22;14238;49.496;8.154;2023-04-03T09:19:54;8.00;99.90
26595;DHT22;14238;49.496;8.154;2023-04-03T09:22:28;8.30;99.90
26595;DHT22;14238;49.496;8.154;2023-04-03T09:27:36;7.20;99.90
26595;DHT22;14238;49.496;8.154;2023-04-03T09:30:03;6.80;99.90
26595;DHT22;14238;49.496;8.154;2023-04-03T09:32:34;6.50;99.90
26595;DHT22;14238;49.496;8.154;2023-04-03T09:35:22;6.50;99.90
26595;DHT22;14238;49.496;8.154;2023-04-03T09:37:53;7.30;99.90
26595;DHT22;14238;49.496;8.154;2023-04-03T09:42:51;7.30;99.90
26595;DHT22;14238;49.496;8.154;2023-04-03T09:48:06;7.30;99.90
26595;DHT22;14238;49.496;8.154;2023-04-03T09:50:34;7.30;99.90
26595;DHT22;14238;49.496;8.154;2023-04-03T09:53:05;8.50;99.90
26595;DHT22;14238;49.496;8.154;2023-04-03T09:55:31;9.20;99.90
26595;DHT22;14238;49.496;8.154;2023-04-03T09:58:02;10.00;99.90
26595;DHT22;14238;49.496;8.154;2023-04-03T10:00:35;10.70;99.90
26595;DHT22;14238;49.496;8.154;2023-04-03T10:03:01;10.90;99.90
26595;DHT22;14238;49.496;8.154;2023-04-03T10:05:35;10.80;98.70
26595;DHT22;14238;49.496;8.154;2023-04-03T10:10:47;10.40;98.10
26595;DHT22;14238;49.496;8.154;2023-04-03T10:13:17;9.90;98.60
26595;DHT22;14238;49.496;8.154;2023-04-03T10:16:09;10.00;97.90
26595;DHT22;14238;49.496;8.154;2023-04-03T10:21:40;10.20;98.80
26595;DHT22;14238;49.496;8.154;2023-04-03T10:24:25;10.70;96.70
26595;DHT22;14238;49.496;8.154;2023-04-03T10:27:10;9.90;97.80
26595;DHT22;14238;49.496;8.154;2023-04-03T10:32:30;11.30;97.80
26595;DHT22;14238;49.496;8.154;2023-04-03T10:40:52;11.10;93.70
26595;DHT22;14238;49.496;8.154;2023-04-03T10:43:41;10.90;94.40
26595;DHT22;14238;49.496;8.154;2023-04-03T10:46:24;10.40;96.30
26595;DHT22;14238;49.496;8.154;2023-04-03T10:51:46;9.90;96.20
26595;DHT22;14238;49.496;8.154;2023-04-03T10:54:20;10.10;96.70
26595;DHT22;14238;49.496;8.154;2023-04-03T10:57:02;9.90;96.70
26595;DHT22;14238;49.496;8.154;2023-04-03T10:59:32;9.30;96.10
26595;DHT22;14238;49.496;8.154;2023-04-03T11:02:06;8.60;96.30
26595;DHT22;14238;49.496;8.154;2023-04-03T11:04:36;8.50;98.10
26595;DHT22;14238;49.496;8.154;2023-04-03T11:07:19;8.30;98.90
26595;DHT22;14238;49.496;8.154;2023-04-03T11:09:50;8.80;98.90
26595;DHT22;14238;49.496;8.154;2023-04-03T11:12:28;8.80;98.70
26595;DHT22;14238;49.496;8.154;2023-04-03T11:14:59;8.60;98.50
26595;DHT22;14238;49.496;8.154;2023-04-03T11:17:39;8.80;98.60
26595;DHT22;14238;49.496;8.154;2023-04-03T11:20:25;9.10;99.60
26595;DHT22;14238;49.496;8.154;2023-04-03T11:23:25;9.60;97.90
26595;DHT22;14238;49.496;8.154;2023-04-03T11:26:04;9.50;98.00
26595;DHT22;14238;49.496;8.154;2023-04-03T11:28:32;9.30;98.60
26595;DHT22;14238;49.496;8.154;2023-04-03T11:31:05;8.80;99.50
26595;DHT22;14238;49.496;8.154;2023-04-03T11:36:26;9.60;98.20
26595;DHT22;14238;49.496;8.154;2023-04-03T11:38:55;9.00;98.30
26595;DHT22;14238;49.496;8.154;2023-04-03T11:41:31;8.70;98.40
26595;DHT22;14238;49.496;8.154;2023-04-03T11:44:02;9.20;97.90
26595;DHT22;14238;49.496;8.154;2023-04-03T11:46:53;9.20;98.40
26595;DHT22;14238;49.496;8.154;2023-04-03T12:03:31;10.70;96.40
26595;DHT22;14238;49.496;8.154;2023-04-03T12:19:24;9.40;96.60
26595;DHT22;14238;49.496;8.154;2023-04-03T12:24:37;8.90;98.70
26595;DHT22;14238;49.496;8.154;2023-04-03T12:27:25;9.00;97.40
26595;DHT22;14238;49.496;8.154;2023-04-03T12:30:00;9.50;97.60
26595;DHT22;14238;49.496;8.154;2023-04-03T12:32:35;9.50;96.60
26595;DHT22;14238;49.496;8.154;2023-04-03T12:35:35;9.20;97.10
26595;DHT22;14238;49.496;8.154;2023-04-03T12:41:18;8.50;98.90
26595;DHT22;14238;49.496;8.154;2023-04-03T12:46:37;8.40;97.60
26595;DHT22;14238;49.496;8.154;2023-04-03T12:49:55;8.40;98.30
26595;DHT22;14238;49.496;8.154;2023-04-03T12:52:05;8.80;98.60
26595;DHT22;14238;49.496;8.154;2023-04-03T12:54:39;8.70;97.00
26595;DHT22;14238;49.496;8.154;2023-04-03T12:57:26;8.70;96.70
26595;DHT22;14238;49.496;8.154;2023-04-03T12:59:53;8.60;96.40
26595;DHT22;14238;49.496;8.154;2023-04-03T13:02:29;8.70;97.40
26595;DHT22;14238;49.496;8.154;2023-04-03T13:05:04;8.60;96.70
26595;DHT22;14238;49.496;8.154;2023-04-03T13:07:33;8.60;97.80
26595;DHT22;14238;49.496;8.154;2023-04-03T13:12:32;8.80;97.20
26595;DHT22;14238;49.496;8.154;2023-04-03T13:15:01;8.90;97.00
26595;DHT22;14238;49.496;8.154;2023-04-03T13:17:29;9.00;96.30
26595;DHT22;14238;49.496;8.154;2023-04-03T13:19:55;9.00;96.60
26595;DHT22;14238;49.496;8.154;2023-04-03T13:22:26;9.00;96.40
26595;DHT22;14238;49.496;8.154;2023-04-03T13:24:53;9.00;95.90
26595;DHT22;14238;49.496;8.154;2023-04-03T13:27:19;9.30;96.30
26595;DHT22;14238;49.496;8.154;2023-04-03T13:29:50;9.30;96.70
26595;DHT22;14238;49.496;8.154;2023-04-03T13:32:20;9.00;98.00
26595;DHT22;14238;49.496;8.154;2023-04-03T13:34:46;8.70;98.90
26595;DHT22;14238;49.496;8.154;2023-04-03T13:39:58;8.40;97.90
26595;DHT22;14238;49.496;8.154;2023-04-03T13:42:31;8.60;98.40
26595;DHT22;14238;49.496;8.154;2023-04-03T13:45:10;8.70;97.40
26595;DHT22;14238;49.496;8.154;2023-04-03T13:47:40;9.70;97.30
26595;DHT22;14238;49.496;8.154;2023-04-03T13:53:00;9.70;98.10
26595;DHT22;14238;49.496;8.154;2023-04-03T13:55:33;9.10;97.50
26595;DHT22;14238;49.496;8.154;2023-04-03T14:00:37;9.10;97.80
26595;DHT22;14238;49.496;8.154;2023-04-03T14:03:13;9.40;96.90
26595;DHT22;14238;49.496;8.154;2023-04-03T14:05:39;9.50;96.60
26595;DHT22;14238;49.496;8.154;2023-04-03T14:08:05;9.10;96.90
26595;DHT22;14238;49.496;8.154;2023-04-03T14:10:32;8.90;97.20
26595;DHT22;14238;49.496;8.154;2023-04-03T14:12:58;9.10;96.40
26595;DHT22;14238;49.496;8.154;2023-04-03T14:15:26;9.30;97.50
26595;DHT22;14238;49.496;8.154;2023-04-03T14:17:54;9.90;97.40
26595;DHT22;14238;49.496;8.154;2023-04-03T14:20:23;9.50;95.40
26595;DHT22;14238;49.496;8.154;2023-04-03T14:22:49;9.40;95.70
26595;DHT22;14238;49.496;8.154;2023-04-03T14:25:16;9.00;96.00
26595;DHT22;14238;49.496;8.154;2023-04-03T14:27:47;9.20;97.60
26595;DHT22;14238;49.496;8.154;2023-04-03T14:30:21;9.00;94.80
26595;DHT22;14238;49.496;8.154;2023-04-03T14:32:47;9.00;96.40
26595;DHT22;14238;49.496;8.154;2023-04-03T14:35:14;9.00;96.10
26595;DHT22;14238;49.496;8.154;2023-04-03T14:37:40;9.40;95.70
26595;DHT22;14238;49.496;8.154;2023-04-03T14:40:08;9.50;96.20
26595;DHT22;14238;49.496;8.154;2023-04-03T14:42:36;9.80;95.10
26595;DHT22;14238;49.496;8.154;2023-04-03T14:45:07;10.10;92.90
26595;DHT22;14238;49.496;8.154;2023-04-03T14:47:45;10.20;92.90
26595;DHT22;14238;49.496;8.154;2023-04-03T14:50:15;10.20;93.50
26595;DHT22;14238;49.496;8.154;2023-04-03T14:52:43;10.70;93.00
26595;DHT22;14238;49.496;8.154;2023-04-03T14:55:09;11.20;91.30
26595;DHT22;14238;49.496;8.154;2023-04-03T14:57:34;11.60;92.40
26595;DHT22;14238;49.496;8.154;2023-04-03T15:00:00;11.80;90.80
26595;DHT22;14238;49.496;8.154;2023-04-03T15:02:34;11.60;92.10
26595;DHT22;14238;49.496;8.154;2023-04-03T15:05:01;12.10;91.30
26595;DHT22;14238;49.496;8.154;2023-04-03T15:07:30;11.20;90.20
26595;DHT22;14238;49.496;8.154;2023-04-03T15:09:58;9.80;92.20
26595;DHT22;14238;49.496;8.154;2023-04-03T15:12:25;9.40;93.90
26595;DHT22;14238;49.496;8.154;2023-04-03T15:14:50;9.10;94.50
26595;DHT22;14238;49.496;8.154;2023-04-03T15:17:19;9.00;93.90
26595;DHT22;14238;49.496;8.154;2023-04-03T15:19:46;9.70;95.10
26595;DHT22;14238;49.496;8.154;2023-04-03T15:22:16;10.10;92.00
26595;DHT22;14238;49.496;8.154;2023-04-03T15:24:43;10.00;92.10
26595;DHT22;14238;49.496;8.154;2023-04-03T15:27:09;10.00;91.40
26595;DHT22;14238;49.496;8.154;2023-04-03T15:29:36;10.40;92.20
26595;DHT22;14238;49.496;8.154;2023-04-03T15:32:01;10.80;92.10
26595;DHT22;14238;49.496;8.154;2023-04-03T15:34:28;10.60;90.20
26595;DHT22;14238;49.496;8.154;2023-04-03T15:36:54;10.60;91.40
26595;DHT22;14238;49.496;8.154;2023-04-03T15:39:20;10.60;90.40
26595;DHT22;14238;49.496;8.154;2023-04-03T15:41:46;10.70;90.50
26595;DHT22;14238;49.496;8.154;2023-04-03T15:44:12;10.40;88.70
26595;DHT22;14238;49.496;8.154;2023-04-03T15:46:38;10.30;90.30
26595;DHT22;14238;49.496;8.154;2023-04-03T15:49:05;9.80;91.60
26595;DHT22;14238;49.496;8.154;2023-04-03T15:51:31;9.50;91.60
26595;DHT22;14238;49.496;8.154;2023-04-03T15:53:57;9.10;91.10
26595;DHT22;14238;49.496;8.154;2023-04-03T15:56:22;8.80;91.10
26595;DHT22;14238;49.496;8.154;2023-04-03T15:58:48;8.60;92.10
26595;DHT22;14238;49.496;8.154;2023-04-03T16:01:14;8.90;92.10
26595;DHT22;14238;49.496;8.154;2023-04-03T16:03:41;9.30;92.60
26595;DHT22;14238;49.496;8.154;2023-04-03T16:06:11;9.60;91.50
26595;DHT22;14238;49.496;8.154;2023-04-03T16:08:37;9.80;92.50
26595;DHT22;14238;49.496;8.154;2023-04-03T16:11:03;9.80;91.40
26595;DHT22;14238;49.496;8.154;2023-04-03T16:13:29;9.80;91.10
26595;DHT22;14238;49.496;8.154;2023-04-03T16:15:54;10.00;90.90
26595;DHT22;14238;49.496;8.154;2023-04-03T16:18:21;9.90;90.70
26595;DHT22;14238;49.496;8.154;2023-04-03T16:20:46;9.90;91.50
26595;DHT22;14238;49.496;8.154;2023-04-03T16:23:12;9.70;92.10
26595;DHT22;14238;49.496;8.154;2023-04-03T16:25:38;9.70;91.20
26595;DHT22;14238;49.496;8.154;2023-04-03T16:28:03;9.80;92.50
26595;DHT22;14238;49.496;8.154;2023-04-03T16:30:29;9.70;90.70
26595;DHT22;14238;49.496;8.154;2023-04-03T16:32:56;9.40;89.30
26595;DHT22;14238;49.496;8.154;2023-04-03T16:35:22;9.30;91.00
26595;DHT22;14238;49.496;8.154;2023-04-03T16:37:48;9.40;90.80
26595;DHT22;14238;49.496;8.154;2023-04-03T16:40:14;9.70;91.00
26595;DHT22;14238;49.496;8.154;2023-04-03T16:42:39;9.50;90.00
26595;DHT22;14238;49.496;8.154;2023-04-03T16:45:06;9.70;91.10
26595;DHT22;14238;49.496;8.154;2023-04-03T16:47:32;9.70;90.80
26595;DHT22;14238;49.496;8.154;2023-04-03T16:49:58;9.50;90.80
26595;DHT22;14238;49.496;8.154;2023-04-03T16:52:23;9.20;90.70
26595;DHT22;14238;49.496;8.154;2023-04-03T16:54:49;8.80;91.60
26595;DHT22;14238;49.496;8.154;2023-04-03T16:57:14;8.40;91.50
26595;DHT22;14238;49.496;8.154;2023-04-03T16:59:40;8.20;92.20
26595;DHT22;14238;49.496;8.154;2023-04-03T17:02:06;8.00;93.00
26595;DHT22;14238;49.496;8.154;2023-04-03T17:04:32;7.80;94.30
26595;DHT22;14238;49.496;8.154;2023-04-03T17:06:57;7.60;93.60
26595;DHT22;14238;49.496;8.154;2023-04-03T17:09:25;7.50;94.50
26595;DHT22;14238;49.496;8.154;2023-04-03T17:11:50;7.40;94.30
26595;DHT22;14238;49.496;8.154;2023-04-03T17:14:16;7.30;94.30
26595;DHT22;14238;49.496;8.154;2023-04-03T17:16:42;7.30;94.70
26595;DHT22;14238;49.496;8.154;2023-04-03T17:19:08;7.20;94.30
26595;DHT22;14238;49.496;8.154;2023-04-03T17:21:33;7.10;95.00
26595;DHT22;14238;49.496;8.154;2023-04-03T17:24:02;6.90;96.30
26595;DHT22;14238;49.496;8.154;2023-04-03T17:26:28;6.70;96.50